sensor_id;sensor_type;location;lat;lon;timestamp;P1;durP1;ratioP1;P2;durP2;ratioP2
21122;SDS011;10719;48.130;11.630;2023-04-21T00:02:05;13.20;;;5.35;;
21122;SDS011;10719;48.130;11.630;2023-04-21T00:04:31;15.73;;;4.55;;
21122;SDS011;10719;48.130;11.630;2023-04-21T00:06:57;10.23;;;3.88;;
21122;SDS011;10719;48.130;11.630;2023-04-21T00:09:25;13.02;;;4.97;;
21122;SDS011;10719;48.130;11.630;2023-04-21T00:11:52;12.25;;;4.32;;
21122;SDS011;10719;48.130;11.630;2023-04-21T00:14:17;10.75;;;4.40;;
21122;SDS011;10719;48.130;11.630;2023-04-21T00:16:43;15.02;;;5.63;;
21122;SDS011;10719;48.130;11.630;2023-04-21T00:19:09;12.55;;;4.40;;
21122;SDS011;10719;48.130;11.630;2023-04-21T00:21:38;13.48;;;4.65;;
21122;SDS011;10719;48.130;11.630;2023-04-21T00:24:04;14.20;;;5.93;;
21122;SDS011;10719;48.130;11.630;2023-04-21T00:26:30;13.43;;;5.38;;
21122;SDS011;10719;48.130;11.630;2023-04-21T00:28:55;15.73;;;5.95;;
21122;SDS011;10719;48.130;11.630;2023-04-21T00:31:21;12.80;;;4.80;;
21122;SDS011;10719;48.130;11.630;2023-04-21T00:33:46;13.73;;;5.47;;
21122;SDS011;10719;48.130;11.630;2023-04-21T00:36:12;10.50;;;4.22;;
21122;SDS011;10719;48.130;11.630;2023-04-21T00:38:37;15.95;;;5.88;;
21122;SDS011;10719;48.130;11.630;2023-04-21T00:41:03;11.75;;;4.57;;
21122;SDS011;10719;48.130;11.630;2023-04-21T00:43:29;19.35;;;8.57;;
21122;SDS011;10719;48.130;11.630;2023-04-21T00:45:54;16.42;;;6.90;;
21122;SDS011;10719;48.130;11.630;2023-04-21T00:48:20;16.42;;;6.18;;
21122;SDS011;10719;48.130;11.630;2023-04-21T00:50:45;13.70;;;5.53;;
21122;SDS011;10719;48.130;11.630;2023-04-21T00:53:11;17.70;;;7.63;;
21122;SDS011;10719;48.130;11.630;2023-04-21T00:55:39;14.25;;;5.50;;
21122;SDS011;10719;48.130;11.630;2023-04-21T00:58:05;16.27;;;6.20;;
21122;SDS011;10719;48.130;11.630;2023-04-21T01:00:31;14.23;;;6.07;;
21122;SDS011;10719;48.130;11.630;2023-04-21T01:02:57;13.30;;;5.05;;
21122;SDS011;10719;48.130;11.630;2023-04-21T01:05:24;13.88;;;5.85;;
21122;SDS011;10719;48.130;11.630;2023-04-21T01:07:50;13.77;;;5.55;;
21122;SDS011;10719;48.130;11.630;2023-04-21T01:10:15;12.23;;;5.05;;
21122;SDS011;10719;48.130;11.630;2023-04-21T01:12:42;13.43;;;5.55;;
21122;SDS011;10719;48.130;11.630;2023-04-21T01:15:09;15.65;;;6.55;;
21122;SDS011;10719;48.130;11.630;2023-04-21T01:17:36;14.60;;;5.05;;
21122;SDS011;10719;48.130;11.630;2023-04-21T01:20:03;18.80;;;6.65;;
21122;SDS011;10719;48.130;11.630;2023-04-21T01:22:39;15.48;;;4.90;;
21122;SDS011;10719;48.130;11.630;2023-04-21T01:25:06;14.95;;;6.13;;
21122;SDS011;10719;48.130;11.630;2023-04-21T01:27:32;18.80;;;6.43;;
21122;SDS011;10719;48.130;11.630;2023-04-21T01:29:58;13.85;;;5.38;;
21122;SDS011;10719;48.130;11.630;2023-04-21T01:32:25;14.88;;;5.97;;
21122;SDS011;10719;48.130;11.630;2023-04-21T01:34:53;13.63;;;5.22;;
21122;SDS011;10719;48.130;11.630;2023-04-21T01:37:21;18.52;;;6.10;;
21122;SDS011;10719;48.130;11.630;2023-04-21T01:39:51;15.88;;;5.95;;
21122;SDS011;10719;48.130;11.630;2023-04-21T01:42:18;16.80;;;6.05;;
21122;SDS011;10719;48.130;11.630;2023-04-21T01:44:46;15.27;;;6.05;;
21122;SDS011;10719;48.130;11.630;2023-04-21T01:47:14;16.40;;;5.85;;
21122;SDS011;10719;48.130;11.630;2023-04-21T01:49:40;14.73;;;5.82;;
21122;SDS011;10719;48.130;11.630;2023-04-21T01:52:06;15.43;;;5.60;;
21122;SDS011;10719;48.130;11.630;2023-04-21T01:54:32;14.73;;;5.68;;
21122;SDS011;10719;48.130;11.630;2023-04-21T01:56:58;13.07;;;5.55;;
21122;SDS011;10719;48.130;11.630;2023-04-21T01:59:24;15.23;;;6.07;;
21122;SDS011;10719;48.130;11.630;2023-04-21T02:01:50;16.45;;;7.25;;
21122;SDS011;10719;48.130;11.630;2023-04-21T02:04:15;21.93;;;9.33;;
21122;SDS011;10719;48.130;11.630;2023-04-21T02:06:41;15.75;;;6.50;;
21122;SDS011;10719;48.130;11.630;2023-04-21T02:09:06;13.20;;;5.40;;
21122;SDS011;10719;48.130;11.630;2023-04-21T02:11:32;17.85;;;6.43;;
21122;SDS011;10719;48.130;11.630;2023-04-21T02:13:57;17.08;;;5.80;;
21122;SDS011;10719;48.130;11.630;2023-04-21T02:16:23;12.85;;;5.13;;
21122;SDS011;10719;48.130;11.630;2023-04-21T02:18:52;14.60;;;6.10;;
21122;SDS011;10719;48.130;11.630;2023-04-21T02:21:19;14.13;;;5.47;;
21122;SDS011;10719;48.130;11.630;2023-04-21T02:23:47;18.40;;;6.57;;
21122;SDS011;10719;48.130;11.630;2023-04-21T02:26:13;17.10;;;6.15;;
21122;SDS011;10719;48.130;11.630;2023-04-21T02:28:39;16.27;;;5.90;;
21122;SDS011;10719;48.130;11.630;2023-04-21T02:31:05;14.95;;;5.07;;
21122;SDS011;10719;48.130;11.630;2023-04-21T02:33:30;12.75;;;5.40;;
21122;SDS011;10719;48.130;11.630;2023-04-21T02:35:56;15.73;;;5.15;;
21122;SDS011;10719;48.130;11.630;2023-04-21T02:38:21;15.40;;;5.57;;
21122;SDS011;10719;48.130;11.630;2023-04-21T02:40:47;11.95;;;5.15;;
21122;SDS011;10719;48.130;11.630;2023-04-21T02:43:14;15.45;;;5.90;;
21122;SDS011;10719;48.130;11.630;2023-04-21T02:45:40;14.20;;;5.57;;
21122;SDS011;10719;48.130;11.630;2023-04-21T02:48:06;15.63;;;5.22;;
21122;SDS011;10719;48.130;11.630;2023-04-21T02:50:31;17.88;;;6.43;;
21122;SDS011;10719;48.130;11.630;2023-04-21T02:52:57;15.43;;;6.80;;
21122;SDS011;10719;48.130;11.630;2023-04-21T02:55:23;14.73;;;6.13;;
21122;SDS011;10719;48.130;11.630;2023-04-21T02:57:49;13.13;;;5.43;;
21122;SDS011;10719;48.130;11.630;2023-04-21T03:00:14;16.73;;;6.03;;
21122;SDS011;10719;48.130;11.630;2023-04-21T03:02:40;16.67;;;7.07;;
21122;SDS011;10719;48.130;11.630;2023-04-21T03:05:07;18.73;;;6.13;;
21122;SDS011;10719;48.130;11.630;2023-04-21T03:07:32;17.17;;;6.32;;
21122;SDS011;10719;48.130;11.630;2023-04-21T03:09:58;17.08;;;5.78;;
21122;SDS011;10719;48.130;11.630;2023-04-21T03:12:24;17.02;;;6.55;;
21122;SDS011;10719;48.130;11.630;2023-04-21T03:14:50;13.20;;;5.03;;
21122;SDS011;10719;48.130;11.630;2023-04-21T03:17:15;16.00;;;6.28;;
21122;SDS011;10719;48.130;11.630;2023-04-21T03:19:41;13.32;;;5.05;;
21122;SDS011;10719;48.130;11.630;2023-04-21T03:22:06;17.17;;;6.90;;
21122;SDS011;10719;48.130;11.630;2023-04-21T03:24:32;12.98;;;5.40;;
21122;SDS011;10719;48.130;11.630;2023-04-21T03:26:57;13.23;;;5.05;;
21122;SDS011;10719;48.130;11.630;2023-04-21T03:29:23;15.20;;;6.57;;
21122;SDS011;10719;48.130;11.630;2023-04-21T03:31:49;13.15;;;5.25;;
21122;SDS011;10719;48.130;11.630;2023-04-21T03:34:14;10.57;;;4.40;;
21122;SDS011;10719;48.130;11.630;2023-04-21T03:36:40;12.35;;;5.15;;
21122;SDS011;10719;48.130;11.630;2023-04-21T03:39:06;14.90;;;6.35;;
21122;SDS011;10719;48.130;11.630;2023-04-21T03:41:34;11.80;;;5.00;;
21122;SDS011;10719;48.130;11.630;2023-04-21T03:44:00;11.73;;;4.57;;
21122;SDS011;10719;48.130;11.630;2023-04-21T03:46:26;11.05;;;4.80;;
21122;SDS011;10719;48.130;11.630;2023-04-21T03:48:51;13.27;;;5.25;;
21122;SDS011;10719;48.130;11.630;2023-04-21T03:51:17;12.95;;;5.50;;
21122;SDS011;10719;48.130;11.630;2023-04-21T03:53:42;13.93;;;5.07;;
21122;SDS011;10719;48.130;11.630;2023-04-21T03:56:08;14.52;;;5.50;;
21122;SDS011;10719;48.130;11.630;2023-04-21T03:58:34;12.75;;;4.60;;
21122;SDS011;10719;48.130;11.630;2023-04-21T04:01:00;12.95;;;4.85;;
21122;SDS011;10719;48.130;11.630;2023-04-21T04:03:26;14.07;;;5.50;;
21122;SDS011;10719;48.130;11.630;2023-04-21T04:05:52;13.18;;;5.03;;
21122;SDS011;10719;48.130;11.630;2023-04-21T04:08:17;12.60;;;4.25;;
21122;SDS011;10719;48.130;11.630;2023-04-21T04:10:43;12.10;;;4.45;;
21122;SDS011;10719;48.130;11.630;2023-04-21T04:13:08;11.95;;;4.60;;
21122;SDS011;10719;48.130;11.630;2023-04-21T04:15:34;14.23;;;5.93;;
21122;SDS011;10719;48.130;11.630;2023-04-21T04:18:00;16.17;;;5.20;;
21122;SDS011;10719;48.130;11.630;2023-04-21T04:20:25;14.15;;;4.82;;
21122;SDS011;10719;48.130;11.630;2023-04-21T04:22:51;12.30;;;5.22;;
21122;SDS011;10719;48.130;11.630;2023-04-21T04:25:17;11.68;;;4.35;;
21122;SDS011;10719;48.130;11.630;2023-04-21T04:27:43;14.27;;;5.38;;
21122;SDS011;10719;48.130;11.630;2023-04-21T04:30:09;13.27;;;4.97;;
21122;SDS011;10719;48.130;11.630;2023-04-21T04:32:35;14.48;;;4.80;;
21122;SDS011;10719;48.130;11.630;2023-04-21T04:35:04;10.55;;;4.47;;
21122;SDS011;10719;48.130;11.630;2023-04-21T04:37:30;12.75;;;5.43;;
21122;SDS011;10719;48.130;11.630;2023-04-21T04:39:58;13.98;;;5.85;;
21122;SDS011;10719;48.130;11.630;2023-04-21T04:42:24;13.43;;;4.90;;
21122;SDS011;10719;48.130;11.630;2023-04-21T04:44:52;13.45;;;4.88;;
21122;SDS011;10719;48.130;11.630;2023-04-21T04:47:18;11.88;;;4.82;;
21122;SDS011;10719;48.130;11.630;2023-04-21T04:49:43;12.70;;;4.50;;
21122;SDS011;10719;48.130;11.630;2023-04-21T04:52:09;13.25;;;4.72;;
21122;SDS011;10719;48.130;11.630;2023-04-21T04:54:35;13.27;;;5.00;;
21122;SDS011;10719;48.130;11.630;2023-04-21T04:57:01;11.55;;;4.00;;
21122;SDS011;10719;48.130;11.630;2023-04-21T04:59:26;13.53;;;5.03;;
21122;SDS011;10719;48.130;11.630;2023-04-21T05:01:52;8.95;;;4.03;;
21122;SDS011;10719;48.130;11.630;2023-04-21T05:04:18;11.55;;;4.65;;
21122;SDS011;10719;48.130;11.630;2023-04-21T05:06:44;10.48;;;4.35;;
21122;SDS011;10719;48.130;11.630;2023-04-21T05:09:09;12.38;;;5.05;;
21122;SDS011;10719;48.130;11.630;2023-04-21T05:11:36;10.13;;;4.22;;
21122;SDS011;10719;48.130;11.630;2023-04-21T05:14:01;11.35;;;4.75;;
21122;SDS011;10719;48.130;11.630;2023-04-21T05:16:27;16.80;;;5.00;;
21122;SDS011;10719;48.130;11.630;2023-04-21T05:18:53;13.30;;;5.38;;
21122;SDS011;10719;48.130;11.630;2023-04-21T05:21:22;10.77;;;4.15;;
21122;SDS011;10719;48.130;11.630;2023-04-21T05:23:49;11.98;;;4.45;;
21122;SDS011;10719;48.130;11.630;2023-04-21T05:26:15;14.60;;;5.47;;
21122;SDS011;10719;48.130;11.630;2023-04-21T05:28:40;9.60;;;4.80;;
21122;SDS011;10719;48.130;11.630;2023-04-21T05:31:06;11.63;;;4.50;;
21122;SDS011;10719;48.130;11.630;2023-04-21T05:33:31;14.00;;;5.40;;
21122;SDS011;10719;48.130;11.630;2023-04-21T05:35:57;13.27;;;5.63;;
21122;SDS011;10719;48.130;11.630;2023-04-21T05:38:22;15.25;;;5.05;;
21122;SDS011;10719;48.130;11.630;2023-04-21T05:40:54;11.35;;;4.30;;
21122;SDS011;10719;48.130;11.630;2023-04-21T05:43:20;12.80;;;5.32;;
21122;SDS011;10719;48.130;11.630;2023-04-21T05:45:46;15.30;;;5.75;;
21122;SDS011;10719;48.130;11.630;2023-04-21T05:48:12;11.55;;;4.38;;
21122;SDS011;10719;48.130;11.630;2023-04-21T05:50:37;16.02;;;5.97;;
21122;SDS011;10719;48.130;11.630;2023-04-21T05:53:03;11.30;;;4.65;;
21122;SDS011;10719;48.130;11.630;2023-04-21T05:55:28;11.77;;;4.88;;
21122;SDS011;10719;48.130;11.630;2023-04-21T05:57:54;14.18;;;5.22;;
21122;SDS011;10719;48.130;11.630;2023-04-21T06:00:20;11.18;;;4.88;;
21122;SDS011;10719;48.130;11.630;2023-04-21T06:02:45;12.57;;;5.72;;
21122;SDS011;10719;48.130;11.630;2023-04-21T06:05:11;9.98;;;4.35;;
21122;SDS011;10719;48.130;11.630;2023-04-21T06:07:36;9.95;;;4.10;;
21122;SDS011;10719;48.130;11.630;2023-04-21T06:10:02;13.23;;;5.63;;
21122;SDS011;10719;48.130;11.630;2023-04-21T06:12:28;14.30;;;5.07;;
21122;SDS011;10719;48.130;11.630;2023-04-21T06:14:54;12.93;;;5.47;;
21122;SDS011;10719;48.130;11.630;2023-04-21T06:17:23;11.63;;;4.47;;
21122;SDS011;10719;48.130;11.630;2023-04-21T06:19:48;14.80;;;5.55;;
21122;SDS011;10719;48.130;11.630;2023-04-21T06:22:18;16.70;;;7.05;;
21122;SDS011;10719;48.130;11.630;2023-04-21T06:24:45;12.55;;;5.35;;
21122;SDS011;10719;48.130;11.630;2023-04-21T06:27:10;10.88;;;4.55;;
21122;SDS011;10719;48.130;11.630;2023-04-21T06:29:36;12.05;;;4.05;;
21122;SDS011;10719;48.130;11.630;2023-04-21T06:32:03;15.77;;;5.50;;
21122;SDS011;10719;48.130;11.630;2023-04-21T06:34:28;14.57;;;5.50;;
21122;SDS011;10719;48.130;11.630;2023-04-21T06:36:54;14.43;;;5.43;;
21122;SDS011;10719;48.130;11.630;2023-04-21T06:39:20;11.82;;;5.20;;
21122;SDS011;10719;48.130;11.630;2023-04-21T06:41:45;10.77;;;3.83;;
21122;SDS011;10719;48.130;11.630;2023-04-21T06:44:11;14.98;;;4.45;;
21122;SDS011;10719;48.130;11.630;2023-04-21T06:46:39;13.07;;;5.45;;
21122;SDS011;10719;48.130;11.630;2023-04-21T06:49:06;14.88;;;5.97;;
21122;SDS011;10719;48.130;11.630;2023-04-21T06:51:35;13.02;;;4.82;;
21122;SDS011;10719;48.130;11.630;2023-04-21T06:54:01;11.38;;;4.70;;
21122;SDS011;10719;48.130;11.630;2023-04-21T06:56:27;12.85;;;4.28;;
21122;SDS011;10719;48.130;11.630;2023-04-21T06:58:53;11.57;;;4.47;;
21122;SDS011;10719;48.130;11.630;2023-04-21T07:01:19;12.98;;;4.63;;
21122;SDS011;10719;48.130;11.630;2023-04-21T07:03:45;15.10;;;4.97;;
21122;SDS011;10719;48.130;11.630;2023-04-21T07:06:10;10.27;;;4.32;;
21122;SDS011;10719;48.130;11.630;2023-04-21T07:08:36;12.05;;;4.38;;
21122;SDS011;10719;48.130;11.630;2023-04-21T07:11:02;10.68;;;4.25;;
21122;SDS011;10719;48.130;11.630;2023-04-21T07:13:28;11.73;;;4.45;;
21122;SDS011;10719;48.130;11.630;2023-04-21T07:15:54;11.65;;;4.43;;
21122;SDS011;10719;48.130;11.630;2023-04-21T07:18:20;10.45;;;4.38;;
21122;SDS011;10719;48.130;11.630;2023-04-21T07:20:45;11.57;;;4.57;;
21122;SDS011;10719;48.130;11.630;2023-04-21T07:23:11;11.15;;;4.25;;
21122;SDS011;10719;48.130;11.630;2023-04-21T07:25:36;9.38;;;4.07;;
21122;SDS011;10719;48.130;11.630;2023-04-21T07:28:02;10.38;;;4.32;;
21122;SDS011;10719;48.130;11.630;2023-04-21T07:30:29;13.82;;;4.30;;
21122;SDS011;10719;48.130;11.630;2023-04-21T07:32:55;8.95;;;3.35;;
21122;SDS011;10719;48.130;11.630;2023-04-21T07:35:21;10.50;;;3.15;;
21122;SDS011;10719;48.130;11.630;2023-04-21T07:37:47;10.10;;;3.85;;
21122;SDS011;10719;48.130;11.630;2023-04-21T07:40:12;14.27;;;5.38;;
21122;SDS011;10719;48.130;11.630;2023-04-21T07:42:38;13.45;;;4.63;;
21122;SDS011;10719;48.130;11.630;2023-04-21T07:45:04;10.38;;;3.95;;
21122;SDS011;10719;48.130;11.630;2023-04-21T07:47:30;10.60;;;4.28;;
21122;SDS011;10719;48.130;11.630;2023-04-21T07:49:56;15.05;;;4.93;;
21122;SDS011;10719;48.130;11.630;2023-04-21T07:52:21;13.98;;;4.22;;
21122;SDS011;10719;48.130;11.630;2023-04-21T07:54:47;11.43;;;4.10;;
21122;SDS011;10719;48.130;11.630;2023-04-21T07:57:13;6.63;;;3.05;;
21122;SDS011;10719;48.130;11.630;2023-04-21T07:59:39;10.13;;;3.58;;
21122;SDS011;10719;48.130;11.630;2023-04-21T08:02:05;12.02;;;3.70;;
21122;SDS011;10719;48.130;11.630;2023-04-21T08:04:30;12.40;;;4.78;;
21122;SDS011;10719;48.130;11.630;2023-04-21T08:06:56;13.23;;;3.80;;
21122;SDS011;10719;48.130;11.630;2023-04-21T08:09:22;9.93;;;4.00;;
21122;SDS011;10719;48.130;11.630;2023-04-21T08:11:48;9.98;;;3.65;;
21122;SDS011;10719;48.130;11.630;2023-04-21T08:14:13;8.63;;;3.53;;
21122;SDS011;10719;48.130;11.630;2023-04-21T08:16:39;10.15;;;3.80;;
21122;SDS011;10719;48.130;11.630;2023-04-21T08:19:06;9.05;;;3.63;;
21122;SDS011;10719;48.130;11.630;2023-04-21T08:21:32;12.70;;;3.90;;
21122;SDS011;10719;48.130;11.630;2023-04-21T08:23:58;9.65;;;3.90;;
21122;SDS011;10719;48.130;11.630;2023-04-21T08:26:24;10.50;;;4.15;;
21122;SDS011;10719;48.130;11.630;2023-04-21T08:28:50;9.57;;;3.40;;
21122;SDS011;10719;48.130;11.630;2023-04-21T08:31:17;11.85;;;4.57;;
21122;SDS011;10719;48.130;11.630;2023-04-21T08:33:43;10.68;;;3.83;;
21122;SDS011;10719;48.130;11.630;2023-04-21T08:36:10;13.32;;;4.47;;
21122;SDS011;10719;48.130;11.630;2023-04-21T08:38:41;10.95;;;4.10;;
21122;SDS011;10719;48.130;11.630;2023-04-21T08:41:07;12.93;;;5.22;;
21122;SDS011;10719;48.130;11.630;2023-04-21T08:43:33;12.02;;;4.15;;
21122;SDS011;10719;48.130;11.630;2023-04-21T08:45:59;9.85;;;4.10;;
21122;SDS011;10719;48.130;11.630;2023-04-21T08:48:26;13.35;;;4.45;;
21122;SDS011;10719;48.130;11.630;2023-04-21T08:50:54;9.88;;;4.13;;
21122;SDS011;10719;48.130;11.630;2023-04-21T08:53:20;11.93;;;4.32;;
21122;SDS011;10719;48.130;11.630;2023-04-21T08:55:49;12.10;;;5.22;;
21122;SDS011;10719;48.130;11.630;2023-04-21T08:58:17;11.77;;;4.53;;
21122;SDS011;10719;48.130;11.630;2023-04-21T09:00:46;12.23;;;4.43;;
21122;SDS011;10719;48.130;11.630;2023-04-21T09:03:12;14.15;;;5.15;;
21122;SDS011;10719;48.130;11.630;2023-04-21T09:05:37;12.73;;;5.00;;
21122;SDS011;10719;48.130;11.630;2023-04-21T09:08:13;11.93;;;4.78;;
21122;SDS011;10719;48.130;11.630;2023-04-21T09:10:46;12.00;;;4.40;;
21122;SDS011;10719;48.130;11.630;2023-04-21T09:13:13;11.25;;;4.30;;
21122;SDS011;10719;48.130;11.630;2023-04-21T09:15:40;13.70;;;4.88;;
21122;SDS011;10719;48.130;11.630;2023-04-21T09:18:14;10.38;;;3.90;;
21122;SDS011;10719;48.130;11.630;2023-04-21T09:20:44;11.38;;;3.35;;
21122;SDS011;10719;48.130;11.630;2023-04-21T09:23:10;14.63;;;5.68;;
21122;SDS011;10719;48.130;11.630;2023-04-21T09:25:40;14.57;;;4.60;;
21122;SDS011;10719;48.130;11.630;2023-04-21T09:28:07;14.38;;;4.07;;
21122;SDS011;10719;48.130;11.630;2023-04-21T09:30:34;8.85;;;3.45;;
21122;SDS011;10719;48.130;11.630;2023-04-21T09:33:01;10.82;;;4.35;;
21122;SDS011;10719;48.130;11.630;2023-04-21T09:35:27;10.57;;;4.15;;
21122;SDS011;10719;48.130;11.630;2023-04-21T09:37:57;12.05;;;4.60;;
21122;SDS011;10719;48.130;11.630;2023-04-21T09:40:24;10.38;;;3.90;;
21122;SDS011;10719;48.130;11.630;2023-04-21T09:42:50;12.25;;;4.63;;
21122;SDS011;10719;48.130;11.630;2023-04-21T09:45:16;12.27;;;4.47;;
21122;SDS011;10719;48.130;11.630;2023-04-21T09:47:42;14.43;;;4.97;;
21122;SDS011;10719;48.130;11.630;2023-04-21T09:50:12;13.52;;;4.95;;
21122;SDS011;10719;48.130;11.630;2023-04-21T09:52:39;15.25;;;5.22;;
21122;SDS011;10719;48.130;11.630;2023-04-21T09:55:10;15.55;;;5.15;;
21122;SDS011;10719;48.130;11.630;2023-04-21T09:57:37;12.60;;;4.63;;
21122;SDS011;10719;48.130;11.630;2023-04-21T10:00:07;11.13;;;4.35;;
21122;SDS011;10719;48.130;11.630;2023-04-21T10:02:37;9.50;;;3.65;;
21122;SDS011;10719;48.130;11.630;2023-04-21T10:05:11;13.10;;;4.70;;
21122;SDS011;10719;48.130;11.630;2023-04-21T10:07:37;12.00;;;4.57;;
21122;SDS011;10719;48.130;11.630;2023-04-21T10:10:03;11.20;;;4.60;;
21122;SDS011;10719;48.130;11.630;2023-04-21T10:12:33;12.00;;;4.75;;
21122;SDS011;10719;48.130;11.630;2023-04-21T10:15:04;15.02;;;5.30;;
21122;SDS011;10719;48.130;11.630;2023-04-21T10:17:31;11.30;;;4.70;;
21122;SDS011;10719;48.130;11.630;2023-04-21T10:20:00;11.82;;;4.53;;
21122;SDS011;10719;48.130;11.630;2023-04-21T10:22:32;14.07;;;4.85;;
21122;SDS011;10719;48.130;11.630;2023-04-21T10:25:02;13.70;;;5.95;;
21122;SDS011;10719;48.130;11.630;2023-04-21T10:27:33;11.60;;;4.70;;
21122;SDS011;10719;48.130;11.630;2023-04-21T10:33:03;14.25;;;6.20;;
21122;SDS011;10719;48.130;11.630;2023-04-21T10:35:56;13.07;;;5.18;;
21122;SDS011;10719;48.130;11.630;2023-04-21T10:38:35;14.90;;;5.47;;
21122;SDS011;10719;48.130;11.630;2023-04-21T10:43:50;13.52;;;4.93;;
21122;SDS011;10719;48.130;11.630;2023-04-21T10:49:20;10.07;;;4.35;;
21122;SDS011;10719;48.130;11.630;2023-04-21T10:54:28;11.00;;;4.30;;
21122;SDS011;10719;48.130;11.630;2023-04-21T10:56:56;15.00;;;5.80;;
21122;SDS011;10719;48.130;11.630;2023-04-21T10:59:23;11.57;;;4.22;;
21122;SDS011;10719;48.130;11.630;2023-04-21T11:01:50;12.80;;;5.15;;
21122;SDS011;10719;48.130;11.630;2023-04-21T11:04:16;11.77;;;4.85;;
21122;SDS011;10719;48.130;11.630;2023-04-21T11:09:34;11.77;;;4.90;;
21122;SDS011;10719;48.130;11.630;2023-04-21T11:12:02;10.80;;;4.07;;
21122;SDS011;10719;48.130;11.630;2023-04-21T11:14:31;11.65;;;4.30;;
21122;SDS011;10719;48.130;11.630;2023-04-21T11:16:57;10.98;;;4.65;;
21122;SDS011;10719;48.130;11.630;2023-04-21T11:19:23;11.40;;;4.47;;
21122;SDS011;10719;48.130;11.630;2023-04-21T11:21:50;8.88;;;3.85;;
21122;SDS011;10719;48.130;11.630;2023-04-21T11:24:17;10.57;;;4.43;;
21122;SDS011;10719;48.130;11.630;2023-04-21T11:26:43;10.95;;;4.18;;
21122;SDS011;10719;48.130;11.630;2023-04-21T11:29:10;14.85;;;4.57;;
21122;SDS011;10719;48.130;11.630;2023-04-21T11:31:36;9.57;;;3.58;;
21122;SDS011;10719;48.130;11.630;2023-04-21T11:34:04;10.98;;;4.10;;
21122;SDS011;10719;48.130;11.630;2023-04-21T11:36:34;9.73;;;3.58;;
21122;SDS011;10719;48.130;11.630;2023-04-21T11:39:10;11.35;;;3.33;;
21122;SDS011;10719;48.130;11.630;2023-04-21T11:41:38;9.10;;;3.80;;
21122;SDS011;10719;48.130;11.630;2023-04-21T11:44:05;7.53;;;3.35;;
21122;SDS011;10719;48.130;11.630;2023-04-21T11:46:32;7.70;;;3.47;;
21122;SDS011;10719;48.130;11.630;2023-04-21T11:49:04;8.27;;;3.17;;
21122;SDS011;10719;48.130;11.630;2023-04-21T11:51:40;7.68;;;3.00;;
21122;SDS011;10719;48.130;11.630;2023-04-21T11:54:08;6.97;;;2.30;;
21122;SDS011;10719;48.130;11.630;2023-04-21T11:56:35;4.63;;;2.17;;
21122;SDS011;10719;48.130;11.630;2023-04-21T11:59:05;4.97;;;1.77;;
21122;SDS011;10719;48.130;11.630;2023-04-21T12:01:32;5.57;;;2.00;;
21122;SDS011;10719;48.130;11.630;2023-04-21T12:03:58;5.63;;;2.30;;
21122;SDS011;10719;48.130;11.630;2023-04-21T12:06:25;8.52;;;3.22;;
21122;SDS011;10719;48.130;11.630;2023-04-21T12:08:55;9.10;;;2.92;;
21122;SDS011;10719;48.130;11.630;2023-04-21T12:11:28;6.53;;;2.50;;
21122;SDS011;10719;48.130;11.630;2023-04-21T12:13:55;8.32;;;2.70;;
21122;SDS011;10719;48.130;11.630;2023-04-21T12:16:23;6.82;;;2.72;;
21122;SDS011;10719;48.130;11.630;2023-04-21T12:18:51;6.78;;;2.63;;
21122;SDS011;10719;48.130;11.630;2023-04-21T12:21:17;5.47;;;2.35;;
21122;SDS011;10719;48.130;11.630;2023-04-21T12:23:42;7.13;;;2.47;;
21122;SDS011;10719;48.130;11.630;2023-04-21T12:26:09;6.35;;;2.63;;
21122;SDS011;10719;48.130;11.630;2023-04-21T12:28:35;3.92;;;1.90;;
21122;SDS011;10719;48.130;11.630;2023-04-21T12:31:01;5.35;;;2.20;;
21122;SDS011;10719;48.130;11.630;2023-04-21T12:33:27;6.03;;;2.10;;
21122;SDS011;10719;48.130;11.630;2023-04-21T12:35:52;3.97;;;1.85;;
21122;SDS011;10719;48.130;11.630;2023-04-21T12:38:18;2.55;;;1.10;;
21122;SDS011;10719;48.130;11.630;2023-04-21T12:40:44;3.17;;;1.55;;
21122;SDS011;10719;48.130;11.630;2023-04-21T12:43:09;2.97;;;1.23;;
21122;SDS011;10719;48.130;11.630;2023-04-21T12:45:35;4.35;;;1.50;;
21122;SDS011;10719;48.130;11.630;2023-04-21T12:48:01;3.53;;;1.40;;
21122;SDS011;10719;48.130;11.630;2023-04-21T12:50:28;2.50;;;1.13;;
21122;SDS011;10719;48.130;11.630;2023-04-21T12:52:54;3.40;;;1.27;;
21122;SDS011;10719;48.130;11.630;2023-04-21T12:55:20;3.42;;;1.08;;
21122;SDS011;10719;48.130;11.630;2023-04-21T12:57:46;4.45;;;1.58;;
21122;SDS011;10719;48.130;11.630;2023-04-21T13:00:12;3.17;;;1.20;;
21122;SDS011;10719;48.130;11.630;2023-04-21T13:02:39;4.28;;;1.23;;
21122;SDS011;10719;48.130;11.630;2023-04-21T13:05:05;4.05;;;1.52;;
21122;SDS011;10719;48.130;11.630;2023-04-21T13:07:34;3.40;;;1.40;;
21122;SDS011;10719;48.130;11.630;2023-04-21T13:10:01;3.30;;;1.55;;
21122;SDS011;10719;48.130;11.630;2023-04-21T13:12:28;3.83;;;1.58;;
21122;SDS011;10719;48.130;11.630;2023-04-21T13:14:54;3.95;;;1.50;;
21122;SDS011;10719;48.130;11.630;2023-04-21T13:17:20;4.25;;;1.50;;
21122;SDS011;10719;48.130;11.630;2023-04-21T13:19:46;4.13;;;1.80;;
21122;SDS011;10719;48.130;11.630;2023-04-21T13:22:12;3.28;;;1.40;;
21122;SDS011;10719;48.130;11.630;2023-04-21T13:24:38;2.45;;;1.15;;
21122;SDS011;10719;48.130;11.630;2023-04-21T13:27:03;4.30;;;1.67;;
21122;SDS011;10719;48.130;11.630;2023-04-21T13:29:29;4.00;;;1.33;;
21122;SDS011;10719;48.130;11.630;2023-04-21T13:31:58;2.92;;;1.52;;
21122;SDS011;10719;48.130;11.630;2023-04-21T13:34:28;2.70;;;1.50;;
21122;SDS011;10719;48.130;11.630;2023-04-21T13:36:54;3.25;;;1.30;;
21122;SDS011;10719;48.130;11.630;2023-04-21T13:39:20;1.80;;;1.02;;
21122;SDS011;10719;48.130;11.630;2023-04-21T13:41:46;4.47;;;1.60;;
21122;SDS011;10719;48.130;11.630;2023-04-21T13:44:12;2.17;;;1.10;;
21122;SDS011;10719;48.130;11.630;2023-04-21T13:46:37;3.88;;;1.23;;
21122;SDS011;10719;48.130;11.630;2023-04-21T13:49:03;4.75;;;1.40;;
21122;SDS011;10719;48.130;11.630;2023-04-21T13:51:30;3.70;;;1.35;;
21122;SDS011;10719;48.130;11.630;2023-04-21T13:53:56;3.33;;;1.15;;
21122;SDS011;10719;48.130;11.630;2023-04-21T13:56:21;2.80;;;1.25;;
21122;SDS011;10719;48.130;11.630;2023-04-21T13:58:47;2.38;;;1.20;;
21122;SDS011;10719;48.130;11.630;2023-04-21T14:01:13;1.55;;;0.90;;
21122;SDS011;10719;48.130;11.630;2023-04-21T14:03:39;3.00;;;1.10;;
21122;SDS011;10719;48.130;11.630;2023-04-21T14:06:05;2.92;;;1.40;;
21122;SDS011;10719;48.130;11.630;2023-04-21T14:08:31;3.22;;;1.15;;
21122;SDS011;10719;48.130;11.630;2023-04-21T14:10:56;2.33;;;1.10;;
21122;SDS011;10719;48.130;11.630;2023-04-21T14:13:23;1.75;;;1.30;;
21122;SDS011;10719;48.130;11.630;2023-04-21T14:15:52;4.18;;;1.58;;
21122;SDS011;10719;48.130;11.630;2023-04-21T14:18:18;2.58;;;1.08;;
21122;SDS011;10719;48.130;11.630;2023-04-21T14:20:44;4.20;;;1.23;;
21122;SDS011;10719;48.130;11.630;2023-04-21T14:23:10;2.97;;;1.13;;
21122;SDS011;10719;48.130;11.630;2023-04-21T14:25:36;1.42;;;0.90;;
21122;SDS011;10719;48.130;11.630;2023-04-21T14:28:01;1.50;;;0.90;;
21122;SDS011;10719;48.130;11.630;2023-04-21T14:30:31;1.35;;;0.70;;
21122;SDS011;10719;48.130;11.630;2023-04-21T14:32:57;3.38;;;1.23;;
21122;SDS011;10719;48.130;11.630;2023-04-21T14:35:22;2.63;;;1.17;;
21122;SDS011;10719;48.130;11.630;2023-04-21T14:37:48;2.80;;;1.20;;